Dauntless Aviation
Airports North America United States Arkansas
KVBT
VBT
VBT
H00

BENTONVILLE MUNI/LOUISE M THADEN FLD AIRPORT

BENTONVILLE, AR, USA

Airport Info
Suggest Updated Information for this Airport

Location

Latitude / Longitude: 36°20'43"N / 94°13'10"W
  36°20.7201'N / 94°13.1702'W
  36.3453 / -94.2195
Elevation: 1298.1 ft. (surveyed)
Variation: 01E (2020)
From city: 02 miles S of BENTONVILLE, AR

Operations

Facility use: Open to the public
Sectional chart: KANSAS CITY
Control tower: no
Boundary ARTCC: MEMPHIS
Responsible ARTCC: MEMPHIS
FSS: JONESBORO [1-800-WX-BRIEF]
NOTAMs facility: VBT (NOTAM-D service available)
Segmented circle: no
Lights: SEE RMK
Beacon: CLEAR-GREEN (LIGHTED LAND AIRPORT)
Landing fee: no

Communications

UNICOM: 122.975
CTAF: 122.975

Nearby radio navigation aids

VOR radial/distance VOR name Freq Var
RZC 321oT/7.6 RAZORBACK VORTAC 116.40 04E
DAK 357oT/18.2 DRAKE VOR/DME 108.80 07E
EOS 161oT/31.6 NEOSHO VOR/DME 117.30 07E
 
NDB name Hdg/Dist Freq Var ID
SILOAM SPRINGS 54oT/16.0 284 04E SLG

Services

Fuel available: 100LLA
Airframe service: MAJOR
Powerplant service: MAJOR
Bottled oxygen: HIGH
Bulk oxygen: NONE

Runway Information

Runway 17/35

Dimensions: 2448 x 75 ft.
Surface: GRASS; SOD,NO SPECIAL SURFACE TREATMENT
 
Runway 17
Runway 35
Latitude: 36-20-55.8600N 36-20-31.6500N
Longitude: 094-13-11.2000W 094-13-11.4200W
Elevation: 1288.7 ft. 1292.5 ft.
Runway true heading: 180 000
Declared distances: TORA:2448 TODA:2448 TORA:2448 TODA:2448
 

Runway 18/36

Dimensions: 4426 x 65 ft.
Surface: ASPHALT OR BITUMINOUS CONCRETE,FAIR CONDITION,NO SPECIAL SURFACE TREATMENT
Edge lights: MEDIUM
 
Runway 18
Runway 36
Latitude: 36-21-04.7835N 36-20-21.0229N
Longitude: 094-13-09.4068W 094-13-09.8031W
Elevation: 1289.3 ft. 1292.6 ft.
Traffic pattern: left left
Runway true heading: 180 000
Displaced threshold: 230 ft.
Declared distances: LDA:4196 ASDA:4196 LDA:4196
Markings: nonprecision instrument, in poor condition nonprecision instrument, in poor condition
Runway end identifier lights: yes yes
 

Operational Statistics

Annual operations: 32300
Air taxi: 200
Local: 21000
Itinerant: 11000
Military: 100

Additional Remarks

  • BEGINNING 60 FT BYD NORTH END OF RY 18 PAVEMENT, GND HAS APROXLY 12 FT DROP OVER 60 FT LENGTH TO POND.
  • FOR CD CTC RAZORBACK APCH 479-649-2416, WHEN APCH CLSD CTC MEMPHIS ARTCC AT 901-368-8453.
  • MIGRATORY BIRDS ON & INVOF ARPT
  • RWY 17/35 VFR DALGT OPNS ONLY.
  • SIMUL USE OF RWYS 17/35 AND 18/36 NA.

Instrument Procedures

Effective Mar 25, 2021 to Apr 21, 2021

IAPs (Instrument Approach Procedures)

   RNAV (GPS) RWY 18 (PDF)
   RNAV (GPS) RWY 36 (PDF)
   VOR-A (PDF)
   TAKEOFF MINIMUMS (PDF)
   ALTERNATE MINIMUMS (PDF)

Departure Procedures

   BENTON SIX (PDF)
 
    Legends & General Information
    Airport Diagram Legend
Topographic chart at:
Satellite photo at:
Airport distance calculator
From:
Weather Reports

METAR

KVBT

KVBT 170531Z AUTO 26003KT 2SM -RA BR OVC004 08/08 A3000 RMK AO2 P0000 TSNO
KXNA
5.4nm SW
KXNA 170509Z AUTO 24003KT 5SM BR FEW005 BKN008 OVC016 08/08 A2999 RMK AO2 T00830078
KROG
6.7nm NE
KROG 170543Z 31003KT 2 1/2SM -RA BR BKN003 OVC007 08/08 A2999 RMK AO2 CIG 002V005 P0001
KSLG
14.8nm SW
KSLG 170506Z AUTO 29004KT 3SM BR FEW003 BKN009 OVC018 08/08 A3000 RMK AO2 TSNO
KFYV
19.9nm SE
KFYV 170453Z AUTO 00000KT 10SM OVC018 09/08 A2999 RMK AO2 SLP154 T00890078
KGMJ
29.1nm W
KGMJ 170535Z AUTO 00000KT 2 1/2SM +DZ 08/08 A3001 RMK AO2 SKY OBSCURED P0003

TAF

KXNA
5.4nm SW
KXNA 162340Z 1700/1724 VRB05KT 5SM BR VCSH SCT010 OVC040 TEMPO 1700/1702 3SM -RA BR BKN025 FM170200 35004KT 5SM BR VCSH SCT010 BKN025 TEMPO 1703/1705 3SM BR BKN007 BKN012 FM170500 33009KT 4SM BR OVC005 FM171500 32009KT 6SM BR BKN007 BKN012 FM172100 33008KT P6SM SCT008 BKN015
KROG
6.7nm NE
KROG 162340Z 1700/1724 VRB05KT 6SM BR VCSH SCT010 OVC040 TEMPO 1700/1702 3SM -RA BR BKN025 FM170200 VRB04KT 4SM BR VCSH SCT010 BKN025 TEMPO 1703/1705 3SM BR BKN007 BKN012 FM170500 33006KT 4SM BR OVC005 FM171600 32007KT 6SM BR BKN007 BKN012 FM172100 32008KT P6SM SCT008 BKN015
KFYV
19.9nm SE
KFYV 170201Z 1702/1724 VRB05KT P6SM SCT015 BKN025 TEMPO 1703/1705 SCT007 BKN012 FM170500 01008KT P6SM BKN006 BKN012 FM170700 34005KT 4SM BR OVC005 FM171500 32006KT 6SM BR BKN007 BKN012 FM172000 32007KT P6SM SCT008 BKN012 FM172200 33007KT P6SM BKN015 BKN025
Safelog

 

Dauntless Aviation

© 2007-2021 Dauntless Aviation, all rights reserved
Information provided via PilotNav comes from a variety of official and unofficial data sources. As errors are possible, do not use PilotNav for primary flight planning purposes. Verify any information that you receive via PilotNav with current and canonical charts and other official documents. The material in this database is subject to database copyrights held by Dauntless Aviation and may not be copied without the express permission of Dauntless Aviation - licenses for use of part of all of this data are available for purchase; enquire via the Dauntless Aviation helpdesk. A number of mechanisms and markers exist in the database to protect against and identify infringement / copyright. Automated queries against this website are strictly prohibited, and all activity is logged and analyzed.